sensor_id;sensor_type;location;lat;lon;timestamp;P1;durP1;ratioP1;P2;durP2;ratioP2
549;SDS011;20066;48.764;9.176;2022-09-21T00:01:11;8.90;;;3.70;;
549;SDS011;20066;48.764;9.176;2022-09-21T00:03:41;5.00;;;3.60;;
549;SDS011;20066;48.764;9.176;2022-09-21T00:06:10;6.80;;;3.50;;
549;SDS011;20066;48.764;9.176;2022-09-21T00:08:39;7.88;;;3.33;;
549;SDS011;20066;48.764;9.176;2022-09-21T00:11:11;5.65;;;3.70;;
549;SDS011;20066;48.764;9.176;2022-09-21T00:13:40;8.02;;;4.00;;
549;SDS011;20066;48.764;9.176;2022-09-21T00:16:11;5.85;;;3.15;;
549;SDS011;20066;48.764;9.176;2022-09-21T00:18:39;5.97;;;3.33;;
549;SDS011;20066;48.764;9.176;2022-09-21T00:21:07;10.25;;;3.50;;
549;SDS011;20066;48.764;9.176;2022-09-21T00:23:36;7.63;;;3.35;;
549;SDS011;20066;48.764;9.176;2022-09-21T00:26:05;8.23;;;3.15;;
549;SDS011;20066;48.764;9.176;2022-09-21T00:28:35;9.48;;;3.28;;
549;SDS011;20066;48.764;9.176;2022-09-21T00:31:04;5.03;;;3.40;;
549;SDS011;20066;48.764;9.176;2022-09-21T00:33:34;6.28;;;3.78;;
549;SDS011;20066;48.764;9.176;2022-09-21T00:36:02;10.93;;;3.15;;
549;SDS011;20066;48.764;9.176;2022-09-21T00:38:31;6.07;;;3.50;;
549;SDS011;20066;48.764;9.176;2022-09-21T00:40:59;9.77;;;4.03;;
549;SDS011;20066;48.764;9.176;2022-09-21T00:43:27;10.85;;;3.80;;
549;SDS011;20066;48.764;9.176;2022-09-21T00:45:58;6.35;;;3.30;;
549;SDS011;20066;48.764;9.176;2022-09-21T00:48:29;10.35;;;3.47;;
549;SDS011;20066;48.764;9.176;2022-09-21T00:50:58;6.07;;;3.20;;
549;SDS011;20066;48.764;9.176;2022-09-21T00:53:29;12.13;;;4.20;;
549;SDS011;20066;48.764;9.176;2022-09-21T00:55:58;14.80;;;3.30;;
549;SDS011;20066;48.764;9.176;2022-09-21T00:58:29;12.77;;;4.28;;
549;SDS011;20066;48.764;9.176;2022-09-21T01:01:08;7.15;;;3.65;;
549;SDS011;20066;48.764;9.176;2022-09-21T01:03:40;6.40;;;3.58;;
549;SDS011;20066;48.764;9.176;2022-09-21T01:06:10;7.57;;;3.97;;
549;SDS011;20066;48.764;9.176;2022-09-21T01:08:38;6.95;;;3.72;;
549;SDS011;20066;48.764;9.176;2022-09-21T01:11:15;5.50;;;3.47;;
549;SDS011;20066;48.764;9.176;2022-09-21T01:14:07;8.55;;;3.95;;
549;SDS011;20066;48.764;9.176;2022-09-21T01:16:46;5.60;;;3.45;;
549;SDS011;20066;48.764;9.176;2022-09-21T01:19:24;11.57;;;4.50;;
549;SDS011;20066;48.764;9.176;2022-09-21T01:22:09;6.95;;;3.80;;
549;SDS011;20066;48.764;9.176;2022-09-21T01:24:49;7.10;;;3.70;;
549;SDS011;20066;48.764;9.176;2022-09-21T01:27:30;6.10;;;3.28;;
549;SDS011;20066;48.764;9.176;2022-09-21T01:30:22;8.65;;;3.40;;
549;SDS011;20066;48.764;9.176;2022-09-21T01:32:51;7.82;;;3.25;;
549;SDS011;20066;48.764;9.176;2022-09-21T01:35:23;6.63;;;3.03;;
549;SDS011;20066;48.764;9.176;2022-09-21T01:37:56;9.68;;;4.28;;
549;SDS011;20066;48.764;9.176;2022-09-21T01:40:28;6.38;;;3.70;;
549;SDS011;20066;48.764;9.176;2022-09-21T01:43:01;6.80;;;3.80;;
549;SDS011;20066;48.764;9.176;2022-09-21T01:45:33;6.32;;;3.42;;
549;SDS011;20066;48.764;9.176;2022-09-21T01:48:03;4.45;;;3.05;;
549;SDS011;20066;48.764;9.176;2022-09-21T01:50:32;4.15;;;2.80;;
549;SDS011;20066;48.764;9.176;2022-09-21T01:53:04;5.70;;;3.10;;
549;SDS011;20066;48.764;9.176;2022-09-21T01:55:39;8.23;;;3.08;;
549;SDS011;20066;48.764;9.176;2022-09-21T01:58:10;8.00;;;3.10;;
549;SDS011;20066;48.764;9.176;2022-09-21T02:00:45;6.38;;;3.10;;
549;SDS011;20066;48.764;9.176;2022-09-21T02:03:15;10.85;;;3.65;;
549;SDS011;20066;48.764;9.176;2022-09-21T02:05:48;5.63;;;2.97;;
549;SDS011;20066;48.764;9.176;2022-09-21T02:08:16;5.93;;;3.17;;
549;SDS011;20066;48.764;9.176;2022-09-21T02:10:44;5.15;;;3.05;;
549;SDS011;20066;48.764;9.176;2022-09-21T02:13:16;7.10;;;3.20;;
549;SDS011;20066;48.764;9.176;2022-09-21T02:15:49;7.80;;;3.35;;
549;SDS011;20066;48.764;9.176;2022-09-21T02:18:32;6.95;;;3.55;;
549;SDS011;20066;48.764;9.176;2022-09-21T02:21:12;6.68;;;3.80;;
549;SDS011;20066;48.764;9.176;2022-09-21T02:23:48;6.05;;;3.65;;
549;SDS011;20066;48.764;9.176;2022-09-21T02:26:25;8.10;;;3.67;;
549;SDS011;20066;48.764;9.176;2022-09-21T02:29:00;5.28;;;3.13;;
549;SDS011;20066;48.764;9.176;2022-09-21T02:31:40;9.23;;;3.30;;
549;SDS011;20066;48.764;9.176;2022-09-21T02:34:16;5.30;;;3.30;;
549;SDS011;20066;48.764;9.176;2022-09-21T02:36:48;6.30;;;3.90;;
549;SDS011;20066;48.764;9.176;2022-09-21T02:39:24;10.82;;;3.75;;
549;SDS011;20066;48.764;9.176;2022-09-21T02:42:00;5.45;;;3.72;;
549;SDS011;20066;48.764;9.176;2022-09-21T02:44:33;9.52;;;3.97;;
549;SDS011;20066;48.764;9.176;2022-09-21T02:47:08;10.20;;;4.40;;
549;SDS011;20066;48.764;9.176;2022-09-21T02:49:41;8.35;;;3.75;;
549;SDS011;20066;48.764;9.176;2022-09-21T02:52:13;10.93;;;3.90;;
549;SDS011;20066;48.764;9.176;2022-09-21T02:54:43;7.82;;;3.42;;
549;SDS011;20066;48.764;9.176;2022-09-21T02:57:14;9.82;;;3.88;;
549;SDS011;20066;48.764;9.176;2022-09-21T02:59:44;5.75;;;3.30;;
549;SDS011;20066;48.764;9.176;2022-09-21T03:02:14;6.53;;;3.60;;
549;SDS011;20066;48.764;9.176;2022-09-21T03:04:42;5.90;;;3.20;;
549;SDS011;20066;48.764;9.176;2022-09-21T03:07:12;9.50;;;4.25;;
549;SDS011;20066;48.764;9.176;2022-09-21T03:09:41;10.18;;;4.25;;
549;SDS011;20066;48.764;9.176;2022-09-21T03:12:09;7.07;;;3.40;;
549;SDS011;20066;48.764;9.176;2022-09-21T03:14:37;8.15;;;4.00;;
549;SDS011;20066;48.764;9.176;2022-09-21T03:17:04;24.27;;;4.40;;
549;SDS011;20066;48.764;9.176;2022-09-21T03:19:33;10.40;;;3.67;;
549;SDS011;20066;48.764;9.176;2022-09-21T03:22:01;7.95;;;3.75;;
549;SDS011;20066;48.764;9.176;2022-09-21T03:24:29;6.75;;;4.15;;
549;SDS011;20066;48.764;9.176;2022-09-21T03:27:12;9.52;;;4.47;;
549;SDS011;20066;48.764;9.176;2022-09-21T03:29:40;8.57;;;4.70;;
549;SDS011;20066;48.764;9.176;2022-09-21T03:32:08;10.40;;;4.05;;
549;SDS011;20066;48.764;9.176;2022-09-21T03:34:37;10.43;;;4.25;;
549;SDS011;20066;48.764;9.176;2022-09-21T03:37:05;7.25;;;4.20;;
549;SDS011;20066;48.764;9.176;2022-09-21T03:39:34;7.32;;;4.10;;
549;SDS011;20066;48.764;9.176;2022-09-21T03:42:03;7.72;;;4.28;;
549;SDS011;20066;48.764;9.176;2022-09-21T03:44:31;12.25;;;3.63;;
549;SDS011;20066;48.764;9.176;2022-09-21T03:46:59;8.50;;;4.32;;
549;SDS011;20066;48.764;9.176;2022-09-21T03:49:26;6.78;;;4.13;;
549;SDS011;20066;48.764;9.176;2022-09-21T03:51:55;7.28;;;3.83;;
549;SDS011;20066;48.764;9.176;2022-09-21T03:54:24;13.70;;;4.70;;
549;SDS011;20066;48.764;9.176;2022-09-21T03:56:52;8.70;;;4.75;;
549;SDS011;20066;48.764;9.176;2022-09-21T03:59:20;8.40;;;4.40;;
549;SDS011;20066;48.764;9.176;2022-09-21T04:01:47;9.82;;;5.13;;
549;SDS011;20066;48.764;9.176;2022-09-21T04:04:15;10.75;;;5.00;;
549;SDS011;20066;48.764;9.176;2022-09-21T04:06:43;9.30;;;5.13;;
549;SDS011;20066;48.764;9.176;2022-09-21T04:09:12;12.65;;;5.55;;
549;SDS011;20066;48.764;9.176;2022-09-21T04:11:40;12.35;;;5.47;;
549;SDS011;20066;48.764;9.176;2022-09-21T04:14:09;14.18;;;5.53;;
549;SDS011;20066;48.764;9.176;2022-09-21T04:16:37;10.43;;;4.90;;
549;SDS011;20066;48.764;9.176;2022-09-21T04:19:05;8.98;;;5.22;;
549;SDS011;20066;48.764;9.176;2022-09-21T04:21:33;12.82;;;6.07;;
549;SDS011;20066;48.764;9.176;2022-09-21T04:24:01;10.95;;;5.80;;
549;SDS011;20066;48.764;9.176;2022-09-21T04:26:31;14.57;;;6.13;;
549;SDS011;20066;48.764;9.176;2022-09-21T04:29:00;11.10;;;5.95;;
549;SDS011;20066;48.764;9.176;2022-09-21T04:31:29;13.02;;;6.28;;
549;SDS011;20066;48.764;9.176;2022-09-21T04:33:57;16.90;;;6.50;;
549;SDS011;20066;48.764;9.176;2022-09-21T04:36:26;9.90;;;5.47;;
549;SDS011;20066;48.764;9.176;2022-09-21T04:39:02;10.55;;;6.47;;
549;SDS011;20066;48.764;9.176;2022-09-21T04:41:31;10.68;;;6.20;;
549;SDS011;20066;48.764;9.176;2022-09-21T04:44:00;10.68;;;5.85;;
549;SDS011;20066;48.764;9.176;2022-09-21T04:46:28;12.80;;;5.93;;
549;SDS011;20066;48.764;9.176;2022-09-21T04:48:55;10.57;;;6.80;;
549;SDS011;20066;48.764;9.176;2022-09-21T04:51:23;13.95;;;6.22;;
549;SDS011;20066;48.764;9.176;2022-09-21T04:53:51;14.48;;;6.10;;
549;SDS011;20066;48.764;9.176;2022-09-21T04:56:19;9.68;;;5.68;;
549;SDS011;20066;48.764;9.176;2022-09-21T04:58:48;11.80;;;5.43;;
549;SDS011;20066;48.764;9.176;2022-09-21T05:01:15;12.10;;;5.57;;
549;SDS011;20066;48.764;9.176;2022-09-21T05:03:43;10.82;;;4.78;;
549;SDS011;20066;48.764;9.176;2022-09-21T05:06:13;11.95;;;6.03;;
549;SDS011;20066;48.764;9.176;2022-09-21T05:08:40;11.27;;;5.78;;
549;SDS011;20066;48.764;9.176;2022-09-21T05:11:26;9.43;;;5.32;;
549;SDS011;20066;48.764;9.176;2022-09-21T05:13:55;11.95;;;5.80;;
549;SDS011;20066;48.764;9.176;2022-09-21T05:16:22;10.27;;;5.30;;
549;SDS011;20066;48.764;9.176;2022-09-21T05:18:51;13.98;;;5.82;;
549;SDS011;20066;48.764;9.176;2022-09-21T05:21:21;11.20;;;5.70;;
549;SDS011;20066;48.764;9.176;2022-09-21T05:23:49;11.15;;;5.78;;
549;SDS011;20066;48.764;9.176;2022-09-21T05:26:16;10.75;;;5.50;;
549;SDS011;20066;48.764;9.176;2022-09-21T05:28:44;14.20;;;6.38;;
549;SDS011;20066;48.764;9.176;2022-09-21T05:31:18;10.48;;;6.32;;
549;SDS011;20066;48.764;9.176;2022-09-21T05:33:57;11.75;;;7.00;;
549;SDS011;20066;48.764;9.176;2022-09-21T05:36:32;16.02;;;6.40;;
549;SDS011;20066;48.764;9.176;2022-09-21T05:39:07;9.82;;;6.45;;
549;SDS011;20066;48.764;9.176;2022-09-21T05:41:35;16.65;;;7.13;;
549;SDS011;20066;48.764;9.176;2022-09-21T05:44:04;10.95;;;6.65;;
549;SDS011;20066;48.764;9.176;2022-09-21T05:46:36;13.35;;;6.55;;
549;SDS011;20066;48.764;9.176;2022-09-21T05:49:08;16.88;;;7.50;;
549;SDS011;20066;48.764;9.176;2022-09-21T05:51:45;15.27;;;7.53;;
549;SDS011;20066;48.764;9.176;2022-09-21T05:54:25;15.27;;;8.10;;
549;SDS011;20066;48.764;9.176;2022-09-21T05:57:04;15.02;;;7.95;;
549;SDS011;20066;48.764;9.176;2022-09-21T05:59:46;22.58;;;8.02;;
549;SDS011;20066;48.764;9.176;2022-09-21T06:02:29;13.63;;;6.90;;
549;SDS011;20066;48.764;9.176;2022-09-21T06:05:11;16.45;;;7.95;;
549;SDS011;20066;48.764;9.176;2022-09-21T06:07:40;19.88;;;8.07;;
549;SDS011;20066;48.764;9.176;2022-09-21T06:10:08;14.07;;;7.65;;
549;SDS011;20066;48.764;9.176;2022-09-21T06:12:38;18.33;;;7.97;;
549;SDS011;20066;48.764;9.176;2022-09-21T06:15:06;12.13;;;7.80;;
549;SDS011;20066;48.764;9.176;2022-09-21T06:17:38;16.77;;;7.63;;
549;SDS011;20066;48.764;9.176;2022-09-21T06:20:07;13.10;;;7.80;;
549;SDS011;20066;48.764;9.176;2022-09-21T06:22:36;15.90;;;8.60;;
549;SDS011;20066;48.764;9.176;2022-09-21T06:25:04;14.35;;;8.48;;
549;SDS011;20066;48.764;9.176;2022-09-21T06:27:32;13.27;;;8.00;;
549;SDS011;20066;48.764;9.176;2022-09-21T06:30:00;16.58;;;9.30;;
549;SDS011;20066;48.764;9.176;2022-09-21T06:32:27;12.43;;;7.90;;
549;SDS011;20066;48.764;9.176;2022-09-21T06:34:56;15.00;;;8.52;;
549;SDS011;20066;48.764;9.176;2022-09-21T06:37:24;18.02;;;8.68;;
549;SDS011;20066;48.764;9.176;2022-09-21T06:39:52;17.75;;;8.75;;
549;SDS011;20066;48.764;9.176;2022-09-21T06:42:20;17.98;;;9.65;;
549;SDS011;20066;48.764;9.176;2022-09-21T06:44:47;16.85;;;8.98;;
549;SDS011;20066;48.764;9.176;2022-09-21T06:47:15;16.73;;;8.70;;
549;SDS011;20066;48.764;9.176;2022-09-21T06:49:43;15.90;;;9.30;;
549;SDS011;20066;48.764;9.176;2022-09-21T06:52:12;19.63;;;10.02;;
549;SDS011;20066;48.764;9.176;2022-09-21T06:54:39;18.80;;;9.27;;
549;SDS011;20066;48.764;9.176;2022-09-21T06:57:07;17.63;;;8.65;;
549;SDS011;20066;48.764;9.176;2022-09-21T06:59:35;16.25;;;8.65;;
549;SDS011;20066;48.764;9.176;2022-09-21T07:02:02;18.58;;;10.27;;
549;SDS011;20066;48.764;9.176;2022-09-21T07:04:30;18.50;;;9.32;;
549;SDS011;20066;48.764;9.176;2022-09-21T07:06:58;19.42;;;10.02;;
549;SDS011;20066;48.764;9.176;2022-09-21T07:09:31;21.50;;;10.25;;
549;SDS011;20066;48.764;9.176;2022-09-21T07:12:18;16.58;;;9.13;;
549;SDS011;20066;48.764;9.176;2022-09-21T07:14:47;20.20;;;9.57;;
549;SDS011;20066;48.764;9.176;2022-09-21T07:17:14;16.10;;;9.30;;
549;SDS011;20066;48.764;9.176;2022-09-21T07:19:42;18.77;;;9.30;;
549;SDS011;20066;48.764;9.176;2022-09-21T07:22:10;19.00;;;9.70;;
549;SDS011;20066;48.764;9.176;2022-09-21T07:24:39;19.20;;;9.25;;
549;SDS011;20066;48.764;9.176;2022-09-21T07:27:07;18.17;;;9.15;;
549;SDS011;20066;48.764;9.176;2022-09-21T07:29:34;21.33;;;9.07;;
549;SDS011;20066;48.764;9.176;2022-09-21T07:32:02;16.67;;;9.70;;
549;SDS011;20066;48.764;9.176;2022-09-21T07:34:33;18.92;;;9.65;;
549;SDS011;20066;48.764;9.176;2022-09-21T07:37:02;19.88;;;10.20;;
549;SDS011;20066;48.764;9.176;2022-09-21T07:39:30;21.38;;;9.65;;
549;SDS011;20066;48.764;9.176;2022-09-21T07:41:59;18.05;;;10.18;;
549;SDS011;20066;48.764;9.176;2022-09-21T07:44:26;17.17;;;9.13;;
549;SDS011;20066;48.764;9.176;2022-09-21T07:46:54;18.83;;;10.15;;
549;SDS011;20066;48.764;9.176;2022-09-21T07:49:22;16.85;;;9.85;;
549;SDS011;20066;48.764;9.176;2022-09-21T07:51:49;22.40;;;9.70;;
549;SDS011;20066;48.764;9.176;2022-09-21T07:54:17;15.15;;;8.65;;
549;SDS011;20066;48.764;9.176;2022-09-21T07:56:45;13.45;;;8.18;;
549;SDS011;20066;48.764;9.176;2022-09-21T07:59:35;14.50;;;7.40;;
549;SDS011;20066;48.764;9.176;2022-09-21T08:02:01;17.30;;;6.53;;
549;SDS011;20066;48.764;9.176;2022-09-21T08:04:29;13.40;;;6.70;;
549;SDS011;20066;48.764;9.176;2022-09-21T08:06:57;12.63;;;6.00;;
549;SDS011;20066;48.764;9.176;2022-09-21T08:09:24;16.50;;;6.67;;
549;SDS011;20066;48.764;9.176;2022-09-21T08:11:52;9.17;;;5.40;;
549;SDS011;20066;48.764;9.176;2022-09-21T08:14:20;9.40;;;5.93;;
549;SDS011;20066;48.764;9.176;2022-09-21T08:16:53;11.77;;;5.70;;
549;SDS011;20066;48.764;9.176;2022-09-21T08:19:20;16.60;;;5.60;;
549;SDS011;20066;48.764;9.176;2022-09-21T08:21:51;16.90;;;6.43;;
549;SDS011;20066;48.764;9.176;2022-09-21T08:24:23;16.20;;;7.47;;
549;SDS011;20066;48.764;9.176;2022-09-21T08:26:52;11.17;;;6.07;;
549;SDS011;20066;48.764;9.176;2022-09-21T08:29:21;16.50;;;6.17;;
549;SDS011;20066;48.764;9.176;2022-09-21T08:31:49;12.13;;;6.40;;
549;SDS011;20066;48.764;9.176;2022-09-21T08:34:19;12.77;;;6.00;;
549;SDS011;20066;48.764;9.176;2022-09-21T08:36:48;14.67;;;6.40;;
549;SDS011;20066;48.764;9.176;2022-09-21T08:39:21;15.20;;;6.53;;
549;SDS011;20066;48.764;9.176;2022-09-21T08:44:42;16.10;;;6.40;;
549;SDS011;20066;48.764;9.176;2022-09-21T08:47:16;14.00;;;7.00;;
549;SDS011;20066;48.764;9.176;2022-09-21T08:49:48;12.43;;;5.97;;
549;SDS011;20066;48.764;9.176;2022-09-21T08:52:19;11.77;;;6.27;;
549;SDS011;20066;48.764;9.176;2022-09-21T08:54:52;14.07;;;6.13;;
549;SDS011;20066;48.764;9.176;2022-09-21T08:57:24;9.53;;;5.30;;
549;SDS011;20066;48.764;9.176;2022-09-21T08:59:55;13.13;;;6.07;;
549;SDS011;20066;48.764;9.176;2022-09-21T09:02:32;11.40;;;5.40;;
549;SDS011;20066;48.764;9.176;2022-09-21T09:05:18;10.50;;;5.20;;
549;SDS011;20066;48.764;9.176;2022-09-21T09:08:03;17.97;;;5.30;;
549;SDS011;20066;48.764;9.176;2022-09-21T09:10:54;8.77;;;4.57;;
549;SDS011;20066;48.764;9.176;2022-09-21T09:13:36;9.67;;;4.83;;
549;SDS011;20066;48.764;9.176;2022-09-21T09:16:16;10.93;;;5.10;;
549;SDS011;20066;48.764;9.176;2022-09-21T09:18:51;10.70;;;4.90;;
549;SDS011;20066;48.764;9.176;2022-09-21T09:21:23;9.60;;;4.77;;
549;SDS011;20066;48.764;9.176;2022-09-21T09:23:58;6.30;;;3.90;;
549;SDS011;20066;48.764;9.176;2022-09-21T09:26:31;12.20;;;4.50;;
549;SDS011;20066;48.764;9.176;2022-09-21T09:29:11;6.50;;;3.53;;
549;SDS011;20066;48.764;9.176;2022-09-21T09:31:44;7.00;;;3.83;;
549;SDS011;20066;48.764;9.176;2022-09-21T09:34:14;8.30;;;3.37;;
549;SDS011;20066;48.764;9.176;2022-09-21T09:36:49;9.93;;;3.50;;
549;SDS011;20066;48.764;9.176;2022-09-21T09:39:24;19.30;;;4.20;;
549;SDS011;20066;48.764;9.176;2022-09-21T09:41:59;8.60;;;3.47;;
549;SDS011;20066;48.764;9.176;2022-09-21T09:44:40;8.90;;;3.60;;
549;SDS011;20066;48.764;9.176;2022-09-21T09:47:29;6.10;;;3.50;;
549;SDS011;20066;48.764;9.176;2022-09-21T09:50:05;8.40;;;3.60;;
549;SDS011;20066;48.764;9.176;2022-09-21T09:52:37;6.50;;;3.10;;
549;SDS011;20066;48.764;9.176;2022-09-21T09:55:10;5.93;;;3.07;;
549;SDS011;20066;48.764;9.176;2022-09-21T09:57:45;11.00;;;3.73;;
549;SDS011;20066;48.764;9.176;2022-09-21T10:00:15;9.60;;;3.63;;
549;SDS011;20066;48.764;9.176;2022-09-21T10:02:46;7.63;;;3.10;;
549;SDS011;20066;48.764;9.176;2022-09-21T10:05:20;6.83;;;2.20;;
549;SDS011;20066;48.764;9.176;2022-09-21T10:07:51;4.80;;;2.83;;
549;SDS011;20066;48.764;9.176;2022-09-21T10:10:23;6.77;;;2.57;;
549;SDS011;20066;48.764;9.176;2022-09-21T10:13:01;6.10;;;2.60;;
549;SDS011;20066;48.764;9.176;2022-09-21T10:15:32;4.37;;;2.27;;
549;SDS011;20066;48.764;9.176;2022-09-21T10:18:01;5.23;;;2.40;;
549;SDS011;20066;48.764;9.176;2022-09-21T10:20:33;11.90;;;4.50;;
549;SDS011;20066;48.764;9.176;2022-09-21T10:23:02;4.97;;;2.07;;
549;SDS011;20066;48.764;9.176;2022-09-21T10:25:30;7.20;;;2.30;;
549;SDS011;20066;48.764;9.176;2022-09-21T10:28:04;3.00;;;1.97;;
549;SDS011;20066;48.764;9.176;2022-09-21T10:30:33;4.90;;;1.90;;
549;SDS011;20066;48.764;9.176;2022-09-21T10:33:06;4.90;;;2.23;;
549;SDS011;20066;48.764;9.176;2022-09-21T10:35:49;5.67;;;2.37;;
549;SDS011;20066;48.764;9.176;2022-09-21T10:38:19;8.77;;;1.93;;
549;SDS011;20066;48.764;9.176;2022-09-21T10:40:53;3.80;;;1.97;;
549;SDS011;20066;48.764;9.176;2022-09-21T10:43:22;5.00;;;1.93;;
549;SDS011;20066;48.764;9.176;2022-09-21T10:45:52;5.03;;;2.30;;
549;SDS011;20066;48.764;9.176;2022-09-21T10:48:22;9.20;;;2.30;;
549;SDS011;20066;48.764;9.176;2022-09-21T10:50:52;4.37;;;1.60;;
549;SDS011;20066;48.764;9.176;2022-09-21T10:53:23;5.23;;;1.70;;
549;SDS011;20066;48.764;9.176;2022-09-21T10:55:56;3.73;;;1.10;;
549;SDS011;20066;48.764;9.176;2022-09-21T11:01:41;4.10;;;1.33;;
549;SDS011;20066;48.764;9.176;2022-09-21T11:04:11;3.47;;;1.20;;
549;SDS011;20066;48.764;9.176;2022-09-21T11:06:44;7.10;;;1.70;;
549;SDS011;20066;48.764;9.176;2022-09-21T11:09:18;2.83;;;1.40;;
549;SDS011;20066;48.764;9.176;2022-09-21T11:11:52;4.93;;;1.30;;
549;SDS011;20066;48.764;9.176;2022-09-21T11:14:30;4.10;;;1.50;;
549;SDS011;20066;48.764;9.176;2022-09-21T11:17:08;2.90;;;1.10;;
549;SDS011;20066;48.764;9.176;2022-09-21T11:19:41;4.60;;;1.60;;
549;SDS011;20066;48.764;9.176;2022-09-21T11:22:17;3.63;;;1.20;;
549;SDS011;20066;48.764;9.176;2022-09-21T11:24:53;3.70;;;1.60;;
549;SDS011;20066;48.764;9.176;2022-09-21T11:27:27;3.10;;;1.50;;
549;SDS011;20066;48.764;9.176;2022-09-21T11:30:01;3.77;;;1.40;;
549;SDS011;20066;48.764;9.176;2022-09-21T11:32:36;4.80;;;1.63;;
549;SDS011;20066;48.764;9.176;2022-09-21T11:35:25;5.13;;;1.40;;
549;SDS011;20066;48.764;9.176;2022-09-21T11:38:04;5.90;;;2.30;;
549;SDS011;20066;48.764;9.176;2022-09-21T11:43:40;3.70;;;1.60;;
549;SDS011;20066;48.764;9.176;2022-09-21T11:46:23;4.00;;;1.53;;
549;SDS011;20066;48.764;9.176;2022-09-21T11:48:59;2.67;;;1.40;;
549;SDS011;20066;48.764;9.176;2022-09-21T11:51:47;3.27;;;1.20;;
549;SDS011;20066;48.764;9.176;2022-09-21T11:54:31;3.73;;;1.20;;
549;SDS011;20066;48.764;9.176;2022-09-21T11:57:17;5.10;;;1.40;;
549;SDS011;20066;48.764;9.176;2022-09-21T11:59:53;6.00;;;1.40;;
549;SDS011;20066;48.764;9.176;2022-09-21T12:05:51;13.30;;;1.60;;
549;SDS011;20066;48.764;9.176;2022-09-21T12:08:40;6.50;;;1.60;;
549;SDS011;20066;48.764;9.176;2022-09-21T12:11:24;2.50;;;1.00;;
549;SDS011;20066;48.764;9.176;2022-09-21T12:14:03;7.47;;;1.43;;
549;SDS011;20066;48.764;9.176;2022-09-21T12:16:37;2.70;;;1.10;;
549;SDS011;20066;48.764;9.176;2022-09-21T12:19:15;3.17;;;1.47;;
549;SDS011;20066;48.764;9.176;2022-09-21T12:21:54;4.40;;;1.23;;
549;SDS011;20066;48.764;9.176;2022-09-21T12:24:26;4.13;;;1.07;;
549;SDS011;20066;48.764;9.176;2022-09-21T12:27:00;3.30;;;1.20;;
549;SDS011;20066;48.764;9.176;2022-09-21T12:29:36;4.87;;;1.23;;
549;SDS011;20066;48.764;9.176;2022-09-21T12:32:10;4.33;;;1.20;;
549;SDS011;20066;48.764;9.176;2022-09-21T12:34:47;2.97;;;0.93;;
549;SDS011;20066;48.764;9.176;2022-09-21T12:37:20;3.90;;;1.00;;
549;SDS011;20066;48.764;9.176;2022-09-21T12:39:53;3.20;;;1.20;;
549;SDS011;20066;48.764;9.176;2022-09-21T12:42:29;2.77;;;1.10;;
549;SDS011;20066;48.764;9.176;2022-09-21T12:45:04;2.77;;;1.07;;
549;SDS011;20066;48.764;9.176;2022-09-21T12:47:43;4.47;;;1.10;;
549;SDS011;20066;48.764;9.176;2022-09-21T12:50:20;1.83;;;0.80;;
549;SDS011;20066;48.764;9.176;2022-09-21T12:52:53;1.50;;;0.80;;
549;SDS011;20066;48.764;9.176;2022-09-21T12:55:31;8.83;;;1.33;;
549;SDS011;20066;48.764;9.176;2022-09-21T12:58:07;1.97;;;0.70;;
549;SDS011;20066;48.764;9.176;2022-09-21T13:00:47;3.10;;;1.00;;
549;SDS011;20066;48.764;9.176;2022-09-21T13:03:26;3.77;;;1.10;;
549;SDS011;20066;48.764;9.176;2022-09-21T13:06:06;3.57;;;0.93;;
549;SDS011;20066;48.764;9.176;2022-09-21T13:08:57;2.10;;;1.17;;
549;SDS011;20066;48.764;9.176;2022-09-21T13:11:32;4.10;;;1.00;;
549;SDS011;20066;48.764;9.176;2022-09-21T13:14:01;4.70;;;1.00;;
549;SDS011;20066;48.764;9.176;2022-09-21T13:16:32;3.63;;;0.90;;
549;SDS011;20066;48.764;9.176;2022-09-21T13:19:20;3.83;;;0.90;;
549;SDS011;20066;48.764;9.176;2022-09-21T13:24:45;1.57;;;0.70;;
549;SDS011;20066;48.764;9.176;2022-09-21T13:30:31;3.97;;;1.03;;
549;SDS011;20066;48.764;9.176;2022-09-21T13:33:03;2.10;;;1.10;;
549;SDS011;20066;48.764;9.176;2022-09-21T13:35:54;1.97;;;0.93;;
549;SDS011;20066;48.764;9.176;2022-09-21T13:38:30;3.90;;;1.17;;
549;SDS011;20066;48.764;9.176;2022-09-21T13:41:03;3.23;;;1.13;;
549;SDS011;20066;48.764;9.176;2022-09-21T13:47:05;4.30;;;1.27;;
549;SDS011;20066;48.764;9.176;2022-09-21T13:49:40;2.23;;;1.00;;
549;SDS011;20066;48.764;9.176;2022-09-21T13:52:21;3.33;;;1.23;;
549;SDS011;20066;48.764;9.176;2022-09-21T13:54:54;4.07;;;1.13;;
549;SDS011;20066;48.764;9.176;2022-09-21T13:57:26;5.43;;;1.13;;
549;SDS011;20066;48.764;9.176;2022-09-21T14:00:02;3.70;;;1.50;;
549;SDS011;20066;48.764;9.176;2022-09-21T14:02:53;4.83;;;0.83;;
549;SDS011;20066;48.764;9.176;2022-09-21T14:05:26;2.67;;;1.00;;
549;SDS011;20066;48.764;9.176;2022-09-21T14:07:59;3.73;;;1.03;;
549;SDS011;20066;48.764;9.176;2022-09-21T14:10:30;2.90;;;1.00;;
549;SDS011;20066;48.764;9.176;2022-09-21T14:13:01;3.50;;;0.90;;
549;SDS011;20066;48.764;9.176;2022-09-21T14:15:38;2.20;;;0.87;;
549;SDS011;20066;48.764;9.176;2022-09-21T14:18:07;2.17;;;0.93;;
549;SDS011;20066;48.764;9.176;2022-09-21T14:27:02;3.13;;;0.90;;
549;SDS011;20066;48.764;9.176;2022-09-21T14:29:41;2.07;;;0.83;;
549;SDS011;20066;48.764;9.176;2022-09-21T14:32:13;2.30;;;1.03;;
549;SDS011;20066;48.764;9.176;2022-09-21T14:34:45;3.73;;;1.20;;
549;SDS011;20066;48.764;9.176;2022-09-21T14:37:20;3.60;;;1.10;;
549;SDS011;20066;48.764;9.176;2022-09-21T14:39:54;2.40;;;1.20;;
549;SDS011;20066;48.764;9.176;2022-09-21T14:42:24;4.03;;;1.07;;
549;SDS011;20066;48.764;9.176;2022-09-21T14:44:55;2.67;;;0.90;;
549;SDS011;20066;48.764;9.176;2022-09-21T14:47:40;2.13;;;0.93;;
549;SDS011;20066;48.764;9.176;2022-09-21T14:50:31;2.47;;;0.90;;
549;SDS011;20066;48.764;9.176;2022-09-21T14:53:10;2.20;;;1.00;;
549;SDS011;20066;48.764;9.176;2022-09-21T14:58:56;4.43;;;1.40;;
549;SDS011;20066;48.764;9.176;2022-09-21T15:01:35;2.67;;;1.20;;
549;SDS011;20066;48.764;9.176;2022-09-21T15:04:11;2.30;;;1.00;;
549;SDS011;20066;48.764;9.176;2022-09-21T15:06:53;2.50;;;1.03;;
549;SDS011;20066;48.764;9.176;2022-09-21T15:09:53;2.97;;;1.00;;
549;SDS011;20066;48.764;9.176;2022-09-21T15:12:57;2.73;;;1.10;;
549;SDS011;20066;48.764;9.176;2022-09-21T15:15:33;2.20;;;1.00;;
549;SDS011;20066;48.764;9.176;2022-09-21T15:18:13;2.83;;;1.10;;
549;SDS011;20066;48.764;9.176;2022-09-21T15:20:53;2.40;;;0.80;;
549;SDS011;20066;48.764;9.176;2022-09-21T15:23:26;2.67;;;1.07;;
549;SDS011;20066;48.764;9.176;2022-09-21T15:25:58;2.07;;;0.80;;
549;SDS011;20066;48.764;9.176;2022-09-21T15:28:29;2.50;;;0.97;;
549;SDS011;20066;48.764;9.176;2022-09-21T15:31:21;2.47;;;1.00;;
549;SDS011;20066;48.764;9.176;2022-09-21T15:33:50;3.80;;;1.10;;
549;SDS011;20066;48.764;9.176;2022-09-21T15:36:20;2.90;;;1.13;;
549;SDS011;20066;48.764;9.176;2022-09-21T15:38:49;3.53;;;1.00;;
549;SDS011;20066;48.764;9.176;2022-09-21T15:44:12;2.57;;;0.90;;
549;SDS011;20066;48.764;9.176;2022-09-21T15:46:42;5.10;;;0.90;;
549;SDS011;20066;48.764;9.176;2022-09-21T15:49:12;2.30;;;0.80;;
549;SDS011;20066;48.764;9.176;2022-09-21T15:51:43;3.20;;;0.90;;
549;SDS011;20066;48.764;9.176;2022-09-21T15:54:15;3.20;;;1.30;;
549;SDS011;20066;48.764;9.176;2022-09-21T15:56:53;3.17;;;1.40;;
549;SDS011;20066;48.764;9.176;2022-09-21T15:59:21;2.27;;;1.10;;
549;SDS011;20066;48.764;9.176;2022-09-21T16:01:50;2.50;;;1.07;;
549;SDS011;20066;48.764;9.176;2022-09-21T16:04:21;3.13;;;1.20;;
549;SDS011;20066;48.764;9.176;2022-09-21T16:06:56;2.73;;;1.00;;
549;SDS011;20066;48.764;9.176;2022-09-21T16:09:35;3.40;;;0.80;;
549;SDS011;20066;48.764;9.176;2022-09-21T16:12:27;2.27;;;0.97;;
549;SDS011;20066;48.764;9.176;2022-09-21T16:15:16;2.80;;;1.00;;
549;SDS011;20066;48.764;9.176;2022-09-21T16:17:52;2.77;;;1.03;;
549;SDS011;20066;48.764;9.176;2022-09-21T16:20:37;4.07;;;1.00;;